Argonia, Kansas
Current Conditions -  °F | °C
As of 9:53 PM on Monday 20 Oct 2014 (Local Time) from KICT Reporting Station
Clear Clear  
Wind Chill: 66°   Ceiling: Unl
Heat Index: 66°   Visibility: 10mi
Dew Point: 46°   Wind: 3mph
Humidity: 48%   Direction: 50°NE
Pressure: 30.07"   Gusts: NA
Location:  37.27°N, 97.77°W
Report Text: KICT 210253Z 05003KT 10SM CLR 19/08 A3007 RMK AO2 SLP175 T01890078 53012
Loading
Personal Weather Stations






























Interactive Weather Map
Tropical Storm Tracking
New forecast layout! Learn more

10-Day Weather Forecast

Advertisements
Track Severe Weather on mobile